Login to view products.
 
Friday, December 02, 2022 (13:37 UTC)
Al Bateen Executive Airport
ICAO: OMAD
IATA: AZI
  • METAR OMAD 021300Z 32005KT 290V360 CAVOK 28/20 Q1012 NOSIG=
  • TAF OMAD 021100Z 0212/0318 32010KT 8000 FEW040 BECMG 0221/0223 VRB02KT BECMG 0306/0308 32010KT=
13-- D:\Input Parser\Destinations\Final\11\OMAD_TAF.txt-- 02/12/2022-- 02/12/2022-- 3
Last Updated:
Wind Dir/Speed:
Temperature:
Rel. Humidity:
Pressure:
Visibility: